Rawlins Municipal Harvey Field
KRWL : now visible

Airfield :











YOU CAN JOIN US ON...

 
LOGIN :

Register | Disclaimer

   EN    FR    IT 

 









Legend :    VFR   Marginal VFR   IFR   Intensive IFR   Very Intensive IFR
Visi :
Ceiling :
>= 8 km
>= 3000ft
5 to 8 km
1000 to 3000 ft
1500m to 5 km
500 to 1000 ft
800 to 1500m
200 to 500 ft
< 800m
< 200 ft
Symbols :   Thunderstorms  Fog  Heavy snow  Heavy precipitations  Wind > 20 kt






- Airport Elevation : 6813 ft


KRWL - Rawlins Municipal Harvey Field

CURRENT METAR :
  • 240553Z AUTO 25021G29KT 10SM CLR M03/M09 A2990 RMK AO2 PK WND 25029/0553 SLP147 T10281094 11011 21039 58014

EXPIRED METARs :
  • 240453Z AUTO 24016G24KT 10SM CLR M04/M09 A2993 RMK AO2 SLP166 T10391094
  • 240353Z AUTO 24018KT 10SM CLR M03/M10 A2994 RMK AO2 PK WND 24027/0335 SLP177 T10281100

TAF KRWL
Valid from the 24 at 06:00 until the 25 at 06:00 UTC


240520Z 2406/2506 23018G25KT P6SM SCT200 WS020/25035KT
FM240900 24025G35KT P6SM VCSH SCT030 SCT050 WS020/26040KT
TEMPO 2409/2412 1SM -SHSN BLSN OVC025
FM241200 27034G46KT P6SM VCSH BKN080 OVC100
FM241500 27022G32KT P6SM SCT070 BKN120



MET'MAP, your aeronautical weather chart ! - Copyright ORBIFLY December 2007 - Disclaimer

ORBIFLY MET'MAP TEAM :

Programming & Development : Alexandra Zaïnal
Concept & original design : Baudouin d'Aumeries
Assistance for programming : Marc-Olivier Méhu
Technical & hardware support : Manuel Goepfert

Contact : metmap@orbifly.com




SOURCES & CREDITS :

   NOAA       Earth
Advisory